Latest Weather Observations for Tidbinbilla

IDN60901

Issued at 8:11 am EDT Wednesday 23 October 2019 (issued every 10 minutes, with the page automatically refreshed every 10 minutes)

About weather observations | Map of Canberra area stations | Latest observations for Canberra area | Other Formats
Station Details ID: 250069 Name: TIDBINBILLA (PCS) Lat: -35.46 Lon: 148.94 Height: 883.0 m
Data from the previous 72 hours. | See also: Recent months for locations in Aust Capital Territory
Date/Time
EDT
Temp
°C
App
Temp
°C
Dew
Point
°C
Rel
Hum
%
Delta-T
°C
Wind Press
QNH
hPa
Press
MSL
hPa
Rain since
9am
mm
Dir  Spd
km/h
Gust
km/h
Spd
kts
Gust
kts
23/08:00am 14.3 14.2 9.5 73 2.6 CALM 0 2 0 1 1025.6 - 0.0
23/07:50am 14.0 14.0 9.9 76 2.2 CALM 0 0 0 0 1025.6 - 0.0
23/07:40am 13.1 12.9 9.2 77 2.1 CALM 0 0 0 0 1025.6 - 0.0
23/07:30am 12.1 11.9 9.1 82 1.6 CALM 0 0 0 0 1025.6 - 0.0
23/07:20am 11.3 11.0 8.8 84 1.3 CALM 0 0 0 0 1025.6 - 0.0
23/07:10am 10.5 9.9 8.9 90 0.8 SSW 2 4 1 2 1025.6 - 0.0
23/07:00am 9.9 9.2 8.7 92 0.6 S 2 2 1 1 1025.6 - 0.0
23/06:50am 9.7 9.4 8.7 93 0.5 CALM 0 2 0 1 1025.5 - 0.0
23/06:40am 9.6 9.3 8.7 94 0.5 CALM 0 0 0 0 1025.4 - 0.0
23/06:30am 9.6 9.3 8.5 93 0.6 CALM 0 0 0 0 1025.4 - 0.0
23/06:20am 9.7 9.4 8.6 93 0.6 CALM 0 0 0 0 1025.2 - 0.0
23/06:10am 9.7 9.4 8.7 93 0.5 CALM 0 0 0 0 1025.2 - 0.0
23/06:00am 9.7 9.4 8.7 93 0.5 CALM 0 0 0 0 1025.1 - 0.0
23/05:50am 9.8 9.5 8.7 93 0.6 CALM 0 0 0 0 1025.1 - 0.0
23/05:40am 9.8 9.5 8.7 93 0.6 CALM 0 2 0 1 1025.1 - 0.0
23/05:30am 10.1 9.8 8.8 92 0.7 CALM 0 2 0 1 1025.1 - 0.0
23/05:20am 10.0 9.7 8.6 91 0.7 CALM 0 0 0 0 1025.1 - 0.0
23/05:10am 10.0 9.7 8.7 92 0.7 CALM 0 0 0 0 1025.0 - 0.0
23/05:00am 10.0 9.7 8.7 92 0.7 CALM 0 0 0 0 1024.9 - 0.0
23/04:50am 10.1 9.8 8.8 92 0.7 CALM 0 0 0 0 1024.9 - 0.0
23/04:40am 10.1 9.9 9.0 93 0.6 CALM 0 0 0 0 1024.9 - 0.0
23/04:30am 10.2 10.0 9.0 92 0.6 CALM 0 2 0 1 1024.9 - 0.0
23/04:20am 10.2 10.0 9.1 93 0.6 CALM 0 0 0 0 1025.1 - 0.0
23/04:10am 10.3 10.1 9.1 92 0.6 CALM 0 0 0 0 1025.1 - 0.0
23/04:00am 10.2 10.0 9.1 93 0.6 CALM 0 0 0 0 1025.2 - 0.0
23/03:50am 10.3 9.8 9.2 93 0.6 SSW 2 4 1 2 1025.3 - 0.0
23/03:40am 10.3 10.1 9.2 93 0.6 CALM 0 2 0 1 1025.4 - 0.0
23/03:30am 10.3 10.1 9.1 92 0.6 CALM 0 0 0 0 1025.4 - 0.0
23/03:20am 10.3 10.1 9.2 93 0.6 CALM 0 0 0 0 1025.5 - 0.0
23/03:00am 10.5 10.3 9.2 92 0.7 CALM 0 0 0 0 1025.5 - 0.0
23/02:50am 10.5 10.3 9.1 91 0.7 CALM 0 2 0 1 1025.6 - 0.0
23/02:40am 10.5 10.3 9.1 91 0.7 CALM 0 2 0 1 1025.7 - 0.0
23/02:30am 10.5 10.3 9.1 91 0.7 CALM 0 0 0 0 1025.8 - 0.0
23/02:20am 10.6 10.4 9.2 91 0.7 CALM 0 0 0 0 1025.9 - 0.0
23/02:10am 10.8 10.6 9.2 90 0.8 CALM 0 0 0 0 1025.9 - 0.0
23/02:00am 10.7 10.5 9.2 90 0.8 CALM 0 0 0 0 1026.0 - 0.0
23/01:50am 10.7 10.2 9.2 90 0.8 SSE 2 2 1 1 1026.1 - 0.0
23/01:40am 10.7 10.5 9.2 90 0.8 CALM 0 2 0 1 1026.4 - 0.0
23/01:30am 10.7 10.1 9.1 90 0.8 SSE 2 2 1 1 1026.5 - 0.0
23/01:20am 10.7 10.5 9.1 90 0.8 CALM 0 2 0 1 1026.7 - 0.0
23/01:10am 10.9 10.7 9.2 89 0.9 CALM 0 2 0 1 1026.8 - 0.0
23/01:00am 11.1 10.5 9.1 87 1.0 W 2 4 1 2 1026.9 - 0.0
23/12:50am 11.1 10.6 9.2 88 1.0 NE 2 4 1 2 1027.0 - 0.0
23/12:40am 11.3 9.9 9.0 86 1.2 NE 6 6 3 3 1027.1 - 0.0
23/12:30am 11.2 10.6 9.1 87 1.1 NNE 2 4 1 2 1027.2 - 0.0
23/12:20am 11.5 11.3 9.2 86 1.2 CALM 0 2 0 1 1027.3 - 0.0
23/12:10am 11.8 11.2 9.1 83 1.4 N 2 6 1 3 1027.3 - 0.0
23/12:00am 12.0 11.4 9.1 82 1.5 NNE 2 4 1 2 1027.2 - 0.0
 
Date/Time
EDT
Temp
°C
App
Temp
°C
Dew
Point
°C
Rel
Hum
%
Delta-T
°C
Wind Press
QNH
hPa
Press
MSL
hPa
Rain since
9am
mm
Dir  Spd
km/h
Gust
km/h
Spd
kts
Gust
kts
22/11:50pm 12.2 11.3 9.2 82 1.6 NNE 4 6 2 3 1027.3 - 0.0
22/11:40pm 12.5 11.5 8.9 79 1.9 NNE 4 6 2 3 1027.3 - 0.0
22/11:30pm 12.3 11.3 8.9 80 1.8 NE 4 6 2 3 1027.3 - 0.0
22/11:20pm 12.4 11.8 9.0 80 1.8 NNE 2 4 1 2 1027.2 - 0.0
22/11:10pm 12.5 12.3 9.0 79 1.8 CALM 0 2 0 1 1027.2 - 0.0
22/11:00pm 12.8 12.2 9.0 78 2.0 NE 2 4 1 2 1027.1 - 0.0
22/10:50pm 13.1 12.1 9.0 76 2.2 NNE 4 6 2 3 1027.1 - 0.0
22/10:40pm 13.3 12.4 9.1 76 2.2 ENE 4 6 2 3 1027.1 - 0.0
22/10:30pm 13.5 12.9 9.1 75 2.3 N 2 6 1 3 1027.1 - 0.0
22/10:20pm 13.8 12.9 9.1 73 2.5 NE 4 6 2 3 1027.1 - 0.0
22/10:10pm 14.0 12.7 9.1 72 2.6 NE 6 7 3 4 1026.9 - 0.0
22/10:00pm 14.2 13.3 9.4 73 2.6 N 4 7 2 4 1027.0 - 0.0
22/09:50pm 14.6 13.1 9.1 69 2.9 ENE 7 9 4 5 1026.9 - 0.0
22/09:40pm 14.8 12.5 9.1 68 3.1 ENE 11 13 6 7 1026.8 - 0.0
22/09:30pm 14.9 12.7 9.3 69 3.0 ENE 11 13 6 7 1026.8 - 0.0
22/09:20pm 15.2 12.6 9.3 68 3.2 ENE 13 15 7 8 1026.7 - 0.0
22/09:10pm 15.5 13.7 9.4 67 3.3 ENE 9 11 5 6 1026.6 - 0.0
22/09:00pm 15.8 14.4 9.5 66 3.4 ENE 7 9 4 5 1026.4 - 0.0
22/08:50pm 16.3 15.9 9.6 64 3.7 NE 2 6 1 3 1026.4 - 0.0
22/08:40pm 16.8 15.6 9.5 62 4.0 ENE 6 9 3 5 1026.2 - 0.0
22/08:30pm 17.2 15.4 9.3 59 4.3 E 9 13 5 7 1026.0 - 0.0
22/08:20pm 17.6 15.3 9.1 57 4.6 E 11 17 6 9 1025.8 - 0.0
22/08:00pm 18.4 15.0 9.2 55 5.0 E 17 20 9 11 1025.1 - 0.0
22/07:50pm 19.1 15.3 9.0 52 5.5 E 19 20 10 11 1025.0 - 0.0
22/07:40pm 19.6 16.0 8.2 47 6.2 E 17 19 9 10 1024.7 - 0.0
22/07:30pm 20.3 17.7 7.7 44 6.8 E 11 15 6 8 1024.6 - 0.0
22/07:20pm 20.8 16.8 0.5 26 9.6 S 11 15 6 8 1024.3 - 0.0
22/07:10pm 21.4 17.4 2.6 29 9.3 SW 13 15 7 8 1024.0 - 0.0
22/07:00pm 22.8 18.4 2.9 27 10.0 SW 15 19 8 10 1023.7 - 0.0
22/06:50pm 23.5 18.6 2.2 24 10.6 WSW 17 19 9 10 1023.6 - 0.0
22/06:40pm 24.0 19.6 2.7 25 10.7 WSW 15 17 8 9 1023.4 - 0.0
22/06:30pm 24.5 20.4 2.2 23 11.1 WSW 13 17 7 9 1023.3 - 0.0
22/06:20pm 24.6 19.6 1.3 21 11.5 WSW 17 22 9 12 1023.2 - 0.0
22/06:10pm 24.9 19.7 2.2 22 11.4 WSW 19 24 10 13 1023.1 - 0.0
22/06:00pm 25.4 20.5 1.9 21 11.7 WSW 17 20 9 11 1023.1 - 0.0
22/05:50pm 25.5 20.5 1.2 20 12.0 WSW 17 20 9 11 1023.0 - 0.0
22/05:40pm 25.6 21.1 2.0 21 11.8 WSW 15 19 8 10 1023.0 - 0.0
22/05:30pm 25.8 21.0 2.6 22 11.8 WSW 17 20 9 11 1022.9 - 0.0
22/05:20pm 26.0 21.1 1.8 20 12.1 WSW 17 24 9 13 1022.9 - 0.0
22/05:10pm 26.4 21.8 1.5 20 12.4 WSW 15 26 8 14 1022.8 - 0.0
22/05:00pm 26.4 21.7 3.2 22 11.9 WSW 17 22 9 12 1022.9 - 0.0
22/04:50pm 26.9 23.0 1.4 19 12.8 WSW 11 15 6 8 1022.9 - 0.0
22/04:40pm 26.4 21.3 0.9 19 12.6 SW 17 22 9 12 1022.9 - 0.0
22/04:30pm 26.2 21.8 0.1 18 12.7 SW 13 19 7 10 1022.9 - 0.0
22/04:20pm 26.5 22.2 0.8 18 12.7 WSW 13 17 7 9 1022.8 - 0.0
22/04:10pm 26.2 21.6 1.3 19 12.4 SW 15 22 8 12 1023.0 - 0.0
22/04:00pm 25.9 21.5 0.5 19 12.4 WSW 13 17 7 9 1022.9 - 0.0
22/03:50pm 25.1 21.5 3.1 24 11.2 W 11 13 6 7 1023.1 - 0.0
22/03:40pm 24.2 18.8 1.5 22 11.2 SW 19 22 10 12 1023.2 - 0.0
22/03:30pm 25.7 20.2 0.8 19 12.2 SW 19 24 10 13 1023.2 - 0.0
22/03:20pm 26.3 21.7 -0.7 17 13.0 SW 13 20 7 11 1023.4 - 0.0
22/03:10pm 26.7 21.9 2.5 21 12.3 WSW 17 19 9 10 1023.5 - 0.0
22/03:00pm 27.3 23.3 2.9 20 12.6 W 13 22 7 12 1023.6 - 0.0
22/02:50pm 27.4 24.2 3.2 21 12.5 WSW 9 15 5 8 1023.8 - 0.0
22/02:40pm 26.7 22.5 1.5 19 12.6 WSW 13 20 7 11 1024.0 - 0.0
22/02:30pm 26.4 22.2 1.5 20 12.4 W 13 17 7 9 1024.0 - 0.0
22/02:20pm 26.5 22.8 2.3 21 12.3 WSW 11 17 6 9 1024.3 - 0.0
22/02:10pm 26.1 23.2 2.8 22 11.9 W 7 13 4 7 1024.5 - 0.0
22/02:00pm 25.8 21.1 0.7 19 12.3 W 15 19 8 10 1024.6 - 0.0
22/01:50pm 25.5 20.9 1.6 21 11.9 W 15 20 8 11 1024.6 - 0.0
22/01:40pm 25.5 20.7 2.6 22 11.6 WSW 17 24 9 13 1024.8 - 0.0
22/01:30pm 25.1 20.4 1.2 21 11.8 W 15 19 8 10 1024.8 - 0.0
22/01:20pm 25.2 21.5 2.5 23 11.4 W 11 22 6 12 1025.0 - 0.0
22/01:10pm 25.2 20.8 0.5 20 12.0 W 13 17 7 9 1025.2 - 0.0
22/01:00pm 24.6 19.3 2.1 23 11.2 SW 19 22 10 12 1025.3 - 0.0
22/12:50pm 24.7 19.8 2.0 22 11.3 WSW 17 24 9 13 1025.4 - 0.0
22/12:40pm 24.2 19.6 3.6 26 10.5 W 17 24 9 13 1025.5 - 0.0
22/12:30pm 24.7 21.1 3.1 24 11.0 WSW 11 17 6 9 1025.6 - 0.0
22/12:20pm 24.7 20.8 3.4 25 10.9 WSW 13 19 7 10 1025.8 - 0.0
22/12:10pm 24.9 22.5 5.4 28 10.3 NW 7 13 4 7 1026.0 - 0.0
22/12:00pm 24.5 21.4 5.7 29 10.0 NNW 11 17 6 9 1026.1 - 0.0
22/11:50am 22.9 19.9 4.3 29 9.6 NNE 9 13 5 7 1026.3 - 0.0
22/11:40am 23.4 21.5 5.0 30 9.6 NNW 4 7 2 4 1026.5 - 0.0
22/11:30am 22.7 19.8 4.5 30 9.4 NNW 9 13 5 7 1026.7 - 0.0
22/11:20am 21.8 18.9 4.5 32 8.9 NNE 9 11 5 6 1026.9 - 0.0
22/11:10am 21.2 18.4 7.1 40 7.5 NNE 11 17 6 9 1027.0 - 0.0
22/11:00am 21.1 18.2 6.6 39 7.7 N 11 15 6 8 1027.2 - 0.0
22/10:50am 20.1 18.0 8.2 46 6.5 N 9 13 5 7 1027.3 - 0.0
22/10:40am 20.1 18.5 8.9 48 6.2 N 7 9 4 5 1027.4 - 0.0
22/10:30am 20.1 18.0 8.4 47 6.4 N 9 13 5 7 1027.5 - 0.0
22/10:20am 19.4 17.3 8.3 48 6.0 N 9 11 5 6 1027.5 - 0.0
22/10:10am 19.4 17.3 8.3 48 6.0 N 9 11 5 6 1027.5 - 0.0
22/10:00am 19.6 17.5 8.3 48 6.1 NNW 9 11 5 6 1027.6 - 0.0
22/09:50am 18.3 16.8 9.1 55 5.0 NNW 7 11 4 6 1027.6 - 0.0
22/09:40am 17.9 16.5 8.7 55 5.0 NW 6 9 3 5 1027.7 - 0.0
22/09:30am 17.9 16.3 7.9 52 5.3 NNW 6 7 3 4 1027.7 - 0.0
22/09:20am 17.1 16.5 8.9 58 4.4 NW 2 6 1 3 1027.7 - 0.0
22/09:00am 16.4 15.5 9.1 62 3.9 WNW 4 6 2 3 1027.7 - 0.0
22/08:50am 16.5 15.1 8.8 60 4.1 NNW 6 7 3 4 1027.7 - 0.0
22/08:40am 16.3 15.1 9.4 63 3.7 N 6 6 3 3 1027.7 - 0.0
22/08:30am 15.8 14.2 8.2 60 4.0 NNE 6 7 3 4 1027.7 - 0.0
22/08:20am 16.1 15.4 8.7 61 4.0 NNE 2 6 1 3 1027.6 - 0.0
22/08:10am 15.4 14.8 7.6 59 4.1 CALM 0 0 0 0 1027.6 - 0.0
22/08:00am 15.1 14.5 7.4 60 4.0 CALM 0 0 0 0 1027.5 - 0.0
22/07:50am 14.5 13.9 7.3 62 3.7 CALM 0 0 0 0 1027.5 - 0.0
22/07:40am 13.6 12.5 6.9 64 3.4 S 2 4 1 2 1027.4 - 0.0
22/07:30am 12.8 11.3 6.8 67 3.0 S 4 4 2 2 1027.3 - 0.0
22/07:20am 12.0 10.8 6.6 69 2.7 SSW 2 2 1 1 1027.3 - 0.0
22/07:10am 11.3 10.1 6.4 72 2.4 S 2 2 1 1 1027.3 - 0.0
22/07:00am 10.6 9.8 6.4 75 2.1 CALM 0 2 0 1 1027.2 - 0.0
22/06:50am 10.5 9.7 6.5 76 2.0 CALM 0 0 0 0 1027.1 - 0.0
22/06:40am 10.4 9.6 6.6 77 1.9 CALM 0 0 0 0 1027.1 - 0.0
22/06:30am 10.4 9.2 6.5 77 1.9 S 2 4 1 2 1027.0 - 0.0
22/06:20am 10.3 9.5 6.7 78 1.8 CALM 0 2 0 1 1026.8 - 0.0
22/06:10am 10.3 9.5 6.7 78 1.8 CALM 0 2 0 1 1026.7 - 0.0
22/06:00am 10.3 9.5 6.7 78 1.8 CALM 0 2 0 1 1026.8 - 0.0
22/05:50am 10.4 9.6 6.7 78 1.8 CALM 0 2 0 1 1026.7 - 0.0
22/05:40am 10.4 9.3 6.8 78 1.8 SSW 2 2 1 1 1026.7 - 0.0
22/05:30am 10.4 9.3 6.9 79 1.7 S 2 4 1 2 1026.6 - 0.0
22/05:20am 10.4 9.3 6.8 78 1.8 S 2 4 1 2 1026.5 - 0.0
22/05:10am 10.2 8.7 6.9 80 1.6 S 4 4 2 2 1026.5 - 0.0
22/05:00am 10.2 9.5 7.1 81 1.5 CALM 0 0 0 0 1026.3 - 0.0
22/04:50am 10.4 8.9 7.0 79 1.7 SSW 4 4 2 2 1026.4 - 0.0
22/04:40am 10.4 8.9 6.9 79 1.7 S 4 4 2 2 1026.3 - 0.0
22/04:30am 10.4 8.9 6.9 79 1.7 SSW 4 4 2 2 1026.3 - 0.0
22/04:20am 10.4 8.9 6.8 78 1.8 SSW 4 4 2 2 1026.4 - 0.0
22/04:10am 10.4 8.6 7.0 79 1.7 S 6 6 3 3 1026.4 - 0.0
22/04:00am 10.3 8.9 7.1 80 1.6 S 4 6 2 3 1026.5 - 0.0
22/03:50am 10.3 9.3 7.2 81 1.6 S 2 4 1 2 1026.7 - 0.0
22/03:40am 10.4 9.8 7.2 80 1.6 CALM 0 0 0 0 1026.8 - 0.0
22/03:30am 10.4 9.0 7.3 81 1.6 S 4 4 2 2 1026.9 - 0.0
22/03:20am 10.4 9.0 7.3 81 1.6 S 4 4 2 2 1026.9 - 0.0
22/03:10am 10.5 9.5 7.4 81 1.6 SSW 2 4 1 2 1026.9 - 0.0
22/03:00am 10.5 9.9 7.4 81 1.6 CALM 0 0 0 0 1027.0 - 0.0
22/02:50am 10.7 10.1 7.4 80 1.7 CALM 0 2 0 1 1027.0 - 0.0
22/02:40am 10.8 9.8 7.3 79 1.8 WSW 2 4 1 2 1027.1 - 0.0
22/02:30am 10.6 10.0 7.4 80 1.6 CALM 0 0 0 0 1027.1 - 0.0
22/02:20am 10.6 10.0 7.2 79 1.7 CALM 0 0 0 0 1027.1 - 0.0
22/02:10am 10.7 10.1 7.4 80 1.7 CALM 0 0 0 0 1027.1 - 0.0
22/02:00am 10.7 10.1 7.4 80 1.7 CALM 0 0 0 0 1027.3 - 0.0
22/01:50am 10.7 10.1 7.4 80 1.7 CALM 0 0 0 0 1027.4 - 0.0
22/01:40am 10.8 10.2 7.3 79 1.8 CALM 0 0 0 0 1027.6 - 0.0
22/01:30am 10.8 9.9 7.7 81 1.6 N 2 4 1 2 1027.7 - 0.0
22/01:20am 11.3 10.7 7.4 77 2.0 CALM 0 2 0 1 1027.7 - 0.0
22/01:10am 11.4 10.8 7.5 77 2.0 CALM 0 0 0 0 1027.9 - 0.0
22/01:00am 11.5 10.2 7.5 76 2.0 S 4 6 2 3 1027.9 - 0.0
22/12:50am 11.5 10.2 7.6 77 2.0 S 4 6 2 3 1028.0 - 0.0
22/12:40am 11.5 10.2 7.6 77 2.0 S 4 7 2 4 1028.1 - 0.0
22/12:30am 11.6 10.3 7.7 77 2.0 SE 4 7 2 4 1028.1 - 0.0
22/12:20am 11.8 11.2 7.5 75 2.2 CALM 0 2 0 1 1028.1 - 0.0
22/12:10am 12.0 11.0 7.4 73 2.3 E 2 4 1 2 1028.1 - 0.0
22/12:00am 12.1 10.4 7.6 74 2.3 SE 6 7 3 4 1028.0 - 0.0
 
Date/Time
EDT
Temp
°C
App
Temp
°C
Dew
Point
°C
Rel
Hum
%
Delta-T
°C
Wind Press
QNH
hPa
Press
MSL
hPa
Rain since
9am
mm
Dir  Spd
km/h
Gust
km/h
Spd
kts
Gust
kts
21/11:50pm 12.4 11.1 7.6 72 2.5 E 4 6 2 3 1028.0 - 0.0
21/11:40pm 12.5 11.1 7.4 71 2.6 NE 4 4 2 2 1028.0 - 0.0
21/11:30pm 12.3 11.7 7.5 72 2.4 CALM 0 2 0 1 1028.1 - 0.0
21/11:20pm 12.4 11.8 7.5 72 2.5 CALM 0 0 0 0 1028.1 - 0.0
21/11:10pm 12.5 11.9 7.5 71 2.6 CALM 0 2 0 1 1028.1 - 0.0
21/11:00pm 12.7 12.1 7.6 71 2.6 CALM 0 0 0 0 1028.1 - 0.0
21/10:50pm 12.7 12.2 7.8 72 2.5 CALM 0 2 0 1 1028.2 - 0.0
21/10:40pm 13.0 12.5 7.7 70 2.7 CALM 0 2 0 1 1028.1 - 0.0
21/10:30pm 13.3 11.6 7.7 69 2.9 NNE 6 7 3 4 1028.1 - 0.0
21/10:20pm 13.8 12.5 7.7 66 3.2 N 4 6 2 3 1028.1 - 0.0
21/10:10pm 14.3 12.6 7.6 64 3.5 NE 6 7 3 4 1028.0 - 0.0
21/10:00pm 14.5 12.8 7.5 63 3.6 ENE 6 7 3 4 1027.9 - 0.0
21/09:50pm 14.7 13.0 7.5 62 3.7 E 6 9 3 5 1027.9 - 0.0
21/09:40pm 14.8 12.5 7.5 61 3.8 ESE 9 11 5 6 1027.9 - 0.0
21/09:30pm 15.1 13.4 7.5 60 3.9 E 6 7 3 4 1027.8 - 0.0
21/09:20pm 15.3 13.4 7.6 60 4.0 - 7 11 4 6 1027.8 - 0.0
21/09:10pm 15.6 13.3 7.4 58 4.3 ESE 9 13 5 7 1027.6 - 0.0
21/09:00pm 15.9 13.6 7.5 57 4.4 - 9 13 5 7 1027.6 - 0.0
21/08:50pm 16.4 13.3 7.3 55 4.7 ENE 13 15 7 8 1027.4 - 0.0
21/08:40pm 16.8 13.3 7.2 53 5.0 E 15 17 8 9 1027.3 - 0.0
21/08:30pm 17.6 14.0 6.8 49 5.6 E 15 19 8 10 1027.0 - 0.0
21/08:20pm 18.0 13.8 5.9 45 6.2 ENE 17 19 9 10 1026.9 - 0.0
21/08:10pm 18.2 15.6 4.3 39 6.9 E 7 13 4 7 1026.8 - 0.0
21/08:00pm 18.0 15.0 3.9 39 7.0 S 9 11 5 6 1026.5 - 0.0
21/07:50pm 18.4 15.9 4.5 40 7.0 S 7 9 4 5 1026.4 - 0.0
21/07:40pm 18.7 16.4 4.7 39 7.0 S 6 7 3 4 1026.3 - 0.0
21/07:30pm 18.9 16.6 4.7 39 7.2 SSW 6 9 3 5 1026.2 - 0.0
21/07:20pm 19.2 17.4 5.4 40 7.1 S 4 6 2 3 1026.1 - 0.0
21/07:10pm 20.0 18.4 6.2 40 7.2 WSW 4 7 2 4 1025.9 - 0.0
21/07:00pm 21.1 19.7 5.5 36 8.1 WSW 2 6 1 3 1025.8 - 0.0
21/06:50pm 20.7 18.6 5.6 37 7.8 NNW 6 11 3 6 1025.7 - 0.0
21/06:40pm 20.9 18.6 5.8 37 7.9 NW 7 11 4 6 1025.7 - 0.0
21/06:30pm 21.6 19.2 5.2 34 8.5 NNW 7 9 4 5 1025.6 - 0.0
21/06:20pm 20.8 18.3 5.0 35 8.1 NNW 7 11 4 6 1025.5 - 0.0
21/06:10pm 21.1 18.3 5.3 35 8.2 NNW 9 11 5 6 1025.5 - 0.0
21/06:00pm 22.4 19.2 5.3 33 8.9 N 11 15 6 8 1025.4 - 0.0
21/05:50pm 23.5 19.1 5.0 30 9.7 NNW 17 20 9 11 1025.3 - 0.0
21/05:40pm 24.0 20.3 4.3 28 10.2 NNW 13 15 7 8 1025.3 - 0.0
21/05:30pm 24.2 20.4 3.9 26 10.4 N 13 17 7 9 1025.2 - 0.0
21/05:20pm 24.0 20.1 3.5 26 10.4 N 13 17 7 9 1025.2 - 0.0
21/05:00pm 25.0 21.7 6.4 30 10.0 NNW 13 17 7 9 1025.1 - 0.0
21/04:50pm 24.7 20.3 4.7 27 10.5 NNW 17 20 9 11 1025.1 - 0.0
21/04:40pm 24.5 20.2 3.3 25 10.8 N 15 22 8 12 1025.1 - 0.0
21/04:30pm 25.0 21.2 4.1 26 10.8 N 13 17 7 9 1025.2 - 0.0
21/04:20pm 25.4 21.5 3.5 24 11.3 NNW 13 17 7 9 1025.2 - 0.0
21/04:10pm 24.8 20.5 3.2 24 11.0 NNW 15 20 8 11 1025.2 - 0.0
21/04:00pm 24.8 20.6 1.8 22 11.4 NNW 13 17 7 9 1025.3 - 0.0
21/03:50pm 23.2 19.6 2.7 26 10.2 NE 11 19 6 10 1025.4 - 0.0
21/03:40pm 23.2 19.0 1.4 24 10.6 N 13 19 7 10 1025.4 - 0.0
21/03:30pm 24.1 19.0 3.2 25 10.6 N 19 22 10 12 1025.5 - 0.0
21/03:20pm 23.6 19.8 1.9 24 10.7 N 11 20 6 11 1025.5 - 0.0
21/03:10pm 24.8 20.3 2.2 23 11.3 N 15 19 8 10 1025.5 - 0.0
21/03:00pm 23.9 20.2 2.5 24 10.7 N 11 15 6 8 1025.8 - 0.0
21/02:50pm 24.4 20.8 3.1 25 10.8 N 11 17 6 9 1025.9 - 0.0
21/02:40pm 23.7 19.3 2.8 25 10.5 N 15 19 8 10 1026.0 - 0.0
21/02:30pm 23.8 19.8 3.0 25 10.5 N 13 19 7 10 1026.1 - 0.0
21/02:20pm 23.2 19.5 4.7 30 9.6 NNE 13 20 7 11 1026.2 - 0.0
21/02:10pm 23.3 18.7 3.8 28 9.9 N 17 20 9 11 1026.3 - 0.0
21/02:00pm 22.2 17.7 4.1 30 9.2 N 17 22 9 12 1026.3 - 0.0
21/01:50pm 22.9 18.6 3.2 27 9.9 N 15 20 8 11 1026.4 - 0.0
21/01:40pm 22.5 19.1 6.0 34 8.7 N 13 22 7 12 1026.5 - 0.0
21/01:30pm 21.7 17.1 3.9 31 9.0 N 17 20 9 11 1026.7 - 0.0
21/01:20pm 22.2 17.5 3.3 29 9.5 N 17 22 9 12 1026.7 - 0.0
21/01:10pm 21.2 17.1 4.3 33 8.6 N 15 19 8 10 1026.7 - 0.0
21/01:00pm 21.9 17.8 4.2 31 9.0 N 15 17 8 9 1026.9 - 0.0
21/12:50pm 21.5 17.8 4.4 32 8.7 N 13 19 7 10 1027.0 - 0.0
21/12:40pm 21.2 17.4 3.8 32 8.8 N 13 20 7 11 1027.1 - 0.0
21/12:30pm 21.0 17.2 3.7 32 8.7 N 13 19 7 10 1027.3 - 0.0
21/12:20pm 20.6 17.7 4.7 35 8.1 N 9 17 5 9 1027.3 - 0.0
21/12:10pm 20.4 17.5 6.3 40 7.4 N 11 17 6 9 1027.5 - 0.0
21/12:00pm 19.8 16.2 3.0 33 8.2 N 11 13 6 7 1027.6 - 0.0
21/11:50am 19.2 15.7 3.4 35 7.8 NNE 11 17 6 9 1027.8 - 0.0
21/11:40am 19.4 16.2 5.1 39 7.3 N 11 13 6 7 1027.8 - 0.0
21/11:30am 19.4 16.5 4.9 38 7.4 N 9 17 5 9 1028.1 - 0.0
21/11:20am 19.4 16.4 4.0 36 7.7 N 9 13 5 7 1028.1 - 0.0
21/11:10am 20.0 17.3 5.7 39 7.4 N 9 13 5 7 1028.2 - 0.0
21/11:00am 19.5 16.1 4.2 36 7.7 NNW 11 13 6 7 1028.3 - 0.0
21/10:50am 18.4 15.9 6.4 45 6.2 N 9 13 5 7 1028.4 - 0.0
21/10:40am 18.5 15.9 4.0 38 7.2 N 7 11 4 6 1028.4 - 0.0
21/10:30am 17.9 14.6 4.5 41 6.7 N 11 13 6 7 1028.4 - 0.0
21/10:20am 18.1 15.0 5.6 44 6.4 N 11 13 6 7 1028.5 - 0.0
21/10:10am 17.7 14.9 5.2 43 6.3 N 9 13 5 7 1028.5 - 0.0
21/10:00am 17.1 14.5 4.3 42 6.3 N 7 11 4 6 1028.6 - 0.0
21/09:50am 17.2 14.2 4.3 42 6.4 N 9 9 5 5 1028.6 - 0.0
21/09:40am 16.8 14.4 5.2 46 5.8 NNW 7 11 4 6 1028.7 - 0.0
21/09:30am 16.0 13.5 4.8 47 5.5 NNW 7 7 4 4 1028.7 - 0.0
21/09:20am 15.5 12.9 4.4 47 5.4 NNW 7 9 4 5 1028.7 - 0.0
21/09:10am 15.1 12.8 4.7 50 5.1 NNW 6 9 3 5 1028.7 - 0.0
21/09:00am 14.3 12.4 4.8 53 4.6 NW 4 6 2 3 1028.7 - 0.0
21/08:50am 14.4 12.8 4.4 51 4.9 NNW 2 6 1 3 1028.6 - 0.0
21/08:40am 13.5 12.2 4.3 53 4.4 CALM 0 2 0 1 1028.6 - 0.0
21/08:30am 13.3 11.8 4.9 57 4.1 SW 2 4 1 2 1028.5 - 0.0
21/08:20am 13.2 12.0 4.5 55 4.2 CALM 0 2 0 1 1028.4 - 0.0
21/08:10am 12.7 11.1 4.5 57 3.9 N 2 4 1 2 1028.4 - 0.0
21/08:00am 12.5 10.7 3.6 54 4.2 NNE 2 4 1 2 1028.4 - 0.0
21/07:50am 12.1 10.2 2.9 53 4.2 NNE 2 2 1 1 1028.3 - 0.0
21/07:40am 11.5 9.6 3.1 56 3.9 NNE 2 4 1 2 1028.2 - 0.0
21/07:30am 11.1 9.6 3.1 58 3.7 CALM 0 2 0 1 1028.0 - 0.0
21/07:20am 10.1 8.5 2.3 58 3.5 CALM 0 0 0 0 1027.9 - 0.0
21/07:10am 9.1 7.5 2.2 62 3.1 CALM 0 2 0 1 1027.8 - 0.0
21/07:00am 8.6 6.9 2.1 63 2.9 CALM 0 2 0 1 1027.7 - 0.0
21/06:50am 8.6 6.2 2.2 64 2.8 NNE 4 6 2 3 1027.6 - 0.0
21/06:40am 8.3 6.2 2.0 64 2.8 NE 2 4 1 2 1027.5 - 0.0
21/06:30am 8.1 6.1 2.1 66 2.6 ENE 2 4 1 2 1027.3 - 0.0
21/06:20am 8.0 6.3 2.0 66 2.6 CALM 0 0 0 0 1027.2 - 0.0
21/06:10am 7.9 5.9 2.1 67 2.5 S 2 4 1 2 1027.1 - 0.0
21/06:00am 7.8 6.2 2.4 68 2.4 CALM 0 0 0 0 1027.1 - 0.0
21/05:50am 8.0 6.4 2.4 68 2.5 CALM 0 2 0 1 1027.0 - 0.0
21/05:40am 8.3 6.3 2.3 66 2.6 NNE 2 4 1 2 1027.1 - 0.0
21/05:30am 8.2 6.2 2.4 67 2.6 N 2 4 1 2 1027.1 - 0.0
21/05:20am 8.4 6.8 2.4 66 2.7 CALM 0 4 0 2 1027.0 - 0.0
21/05:10am 8.5 6.5 2.4 65 2.7 NNE 2 4 1 2 1027.0 - 0.0
21/05:00am 8.6 7.0 2.3 64 2.8 CALM 0 2 0 1 1026.9 - 0.0
21/04:50am 8.7 7.1 2.4 64 2.8 CALM 0 2 0 1 1026.8 - 0.0
21/04:40am 8.8 6.4 2.4 64 2.8 SSW 4 4 2 2 1026.8 - 0.0
21/04:30am 8.9 6.5 2.4 64 2.9 SSW 4 6 2 3 1026.7 - 0.0
21/04:20am 8.9 6.5 2.4 64 2.9 S 4 6 2 3 1026.8 - 0.0
21/04:10am 8.7 5.7 2.3 64 2.8 S 7 7 4 4 1026.8 - 0.0
21/04:00am 8.6 6.2 2.4 65 2.7 SSW 4 6 2 3 1026.7 - 0.0
21/03:50am 8.6 6.2 2.4 65 2.7 S 4 6 2 3 1026.9 - 0.0
21/03:40am 8.6 6.2 2.4 65 2.7 S 4 4 2 2 1027.0 - 0.0
21/03:30am 8.5 5.8 2.4 65 2.7 S 6 6 3 3 1027.0 - 0.0
21/03:20am 8.4 5.7 2.4 66 2.7 S 6 6 3 3 1027.0 - 0.0
21/03:10am 8.1 5.8 2.5 68 2.5 S 4 6 2 3 1027.1 - 0.0
21/03:00am 8.1 6.5 2.6 68 2.4 CALM 0 2 0 1 1027.1 - 0.0
21/02:50am 8.1 6.5 2.7 69 2.4 CALM 0 4 0 2 1027.1 - 0.0
21/02:40am 8.3 6.7 2.6 67 2.5 CALM 0 2 0 1 1027.1 - 0.0
21/02:30am 8.4 6.8 2.7 67 2.5 CALM 0 0 0 0 1027.1 - 0.0
21/02:20am 8.5 6.9 2.6 66 2.6 CALM 0 2 0 1 1027.1 - 0.0
21/02:10am 8.8 6.5 2.8 66 2.7 N 4 6 2 3 1027.3 - 0.0
21/02:00am 9.5 7.2 2.7 62 3.1 N 4 6 2 3 1027.2 - 0.0
21/01:50am 9.8 8.2 2.5 60 3.3 CALM 0 2 0 1 1027.3 - 0.0
21/01:40am 9.7 7.7 2.4 60 3.3 S 2 4 1 2 1027.3 - 0.0
21/01:30am 9.7 7.7 2.5 61 3.2 SSW 2 4 1 2 1027.4 - 0.0
21/01:20am 9.6 8.0 2.5 61 3.2 CALM 0 0 0 0 1027.5 - 0.0
21/01:10am 9.6 7.7 2.7 62 3.1 SSW 2 4 1 2 1027.5 - 0.0
21/01:00am 9.8 8.2 2.5 60 3.3 CALM 0 2 0 1 1027.6 - 0.0
21/12:50am 9.7 7.8 2.6 61 3.2 SSE 2 4 1 2 1027.6 - 0.0
21/12:40am 10.0 8.5 2.8 61 3.3 CALM 0 2 0 1 1027.6 - 0.0
21/12:30am 10.3 8.0 2.6 59 3.5 SSW 4 4 2 2 1027.7 - 0.0
21/12:20am 10.3 8.0 2.6 59 3.5 S 4 4 2 2 1027.6 - 0.0
21/12:10am 10.2 7.5 2.6 59 3.4 S 6 6 3 3 1027.6 - 0.0
21/12:00am 10.1 7.4 2.7 60 3.3 S 6 7 3 4 1027.6 - 0.0
 
Date/Time
EDT
Temp
°C
App
Temp
°C
Dew
Point
°C
Rel
Hum
%
Delta-T
°C
Wind Press
QNH
hPa
Press
MSL
hPa
Rain since
9am
mm
Dir  Spd
km/h
Gust
km/h
Spd
kts
Gust
kts
20/11:50pm 10.1 8.2 2.7 60 3.3 S 2 4 1 2 1027.5 - 0.0
20/11:40pm 10.1 7.8 2.6 59 3.4 S 4 6 2 3 1027.5 - 0.0
20/11:30pm 10.1 7.8 2.7 60 3.3 SSE 4 6 2 3 1027.3 - 0.0
20/11:20pm 10.1 7.8 2.7 60 3.3 SSW 4 6 2 3 1027.4 - 0.0
20/11:10pm 10.2 8.3 2.6 59 3.4 SSW 2 2 1 1 1027.3 - 0.0
20/11:00pm 10.2 8.3 2.7 59 3.4 S 2 4 1 2 1027.3 - 0.0
20/10:50pm 10.5 8.2 3.0 60 3.4 S 4 6 2 3 1027.2 - 0.0
20/10:40pm 11.1 8.8 2.8 56 3.8 NE 4 7 2 4 1027.1 - 0.0
20/10:30pm 11.3 8.4 2.6 55 4.0 ENE 7 9 4 5 1027.1 - 0.0
20/10:20pm 11.4 8.5 2.6 54 4.0 ENE 7 9 4 5 1027.1 - 0.0
20/10:10pm 11.7 8.4 2.7 54 4.1 ENE 9 9 5 5 1027.0 - 0.0
20/10:00pm 12.1 8.5 2.7 52 4.3 ENE 11 15 6 8 1026.9 - 0.0
20/09:50pm 12.4 8.0 2.7 51 4.5 ENE 15 17 8 9 1026.7 - 0.0
20/09:40pm 12.7 8.4 3.0 51 4.5 E 15 20 8 11 1026.5 - 0.0
20/09:30pm 13.0 9.1 3.3 51 4.6 E 13 17 7 9 1026.3 - 0.0
20/09:20pm 13.1 8.4 3.3 51 4.6 ESE 17 20 9 11 1026.1 - 0.0
20/09:10pm 13.3 8.6 3.0 49 4.8 SE 17 19 9 10 1025.8 - 0.0
20/09:00pm 13.7 9.6 2.4 46 5.2 SE 13 17 7 9 1025.5 - 0.0
20/08:50pm 13.9 9.8 2.0 44 5.5 SSE 13 17 7 9 1025.3 - 0.0
20/08:40pm 14.2 10.0 1.9 43 5.7 S 13 17 7 9 1025.0 - 0.0
20/08:30pm 14.2 10.2 2.8 46 5.3 S 13 17 7 9 1024.8 - 0.0
20/08:20pm 14.2 9.9 3.0 47 5.3 S 15 17 8 9 1024.6 - 0.0
20/08:10pm 14.2 9.9 3.3 48 5.2 S 15 17 8 9 1024.3 - 0.0
20/08:00pm 14.1 9.8 3.2 48 5.1 SSW 15 19 8 10 1024.1 - 0.0
20/07:50pm 14.2 9.9 3.4 48 5.1 S 15 17 8 9 1024.0 - 0.0
20/07:40pm 14.3 10.0 3.4 48 5.2 S 15 19 8 10 1023.8 - 0.0
20/07:30pm 14.4 10.6 3.7 48 5.1 S 13 15 7 8 1023.7 - 0.0
20/07:20pm 14.7 11.3 3.9 48 5.2 SSW 11 13 6 7 1023.6 - 0.0
20/07:10pm 15.6 13.6 4.4 47 5.5 SW 4 7 2 4 1023.4 - 0.0
20/07:00pm 16.5 14.1 4.5 45 5.9 SW 6 7 3 4 1023.2 - 0.0
20/06:50pm 17.2 15.3 5.1 44 6.1 W 4 6 2 3 1023.1 - 0.0
20/06:40pm 17.5 15.0 4.5 42 6.5 WNW 7 9 4 5 1022.9 - 0.0
20/06:30pm 18.0 15.2 2.9 36 7.3 NW 7 9 4 5 1022.9 - 0.0
20/06:20pm 18.8 16.0 3.2 35 7.6 NW 7 9 4 5 1022.8 - 0.0
20/06:10pm 18.8 16.0 3.4 36 7.6 NNW 7 9 4 5 1022.7 - 0.0
20/06:00pm 18.7 15.6 3.7 37 7.4 NNW 9 11 5 6 1022.6 - 0.0
20/05:50pm 18.8 15.7 3.5 36 7.5 N 9 13 5 7 1022.5 - 0.0
20/05:40pm 18.4 15.3 3.5 37 7.3 N 9 15 5 8 1022.4 - 0.0
20/05:30pm 18.2 15.1 3.5 37 7.2 NNE 9 11 5 6 1022.4 - 0.0
20/05:20pm 18.5 14.5 2.8 35 7.6 N 13 17 7 9 1022.2 - 0.0
20/05:00pm 18.8 15.4 3.9 37 7.4 N 11 15 6 8 1022.0 - 0.0
20/04:50pm 18.0 15.1 4.4 40 6.8 N 9 13 5 7 1022.1 - 0.0
20/04:40pm 17.3 13.2 2.0 35 7.2 N 13 17 7 9 1021.9 - 0.0
20/04:30pm 17.4 13.4 2.9 38 7.0 N 13 15 7 8 1021.7 - 0.0
20/04:20pm 17.5 13.5 2.9 37 7.0 N 13 19 7 10 1021.7 - 0.0
20/04:10pm 18.3 14.0 3.1 36 7.4 N 15 19 8 10 1021.7 - 0.0
20/04:00pm 17.2 11.8 1.4 34 7.4 NE 19 24 10 13 1021.6 - 0.0
20/03:50pm 17.3 11.2 0.7 32 7.6 N 22 26 12 14 1021.6 - 0.0
20/03:40pm 17.4 12.3 0.7 32 7.7 N 17 24 9 13 1021.5 - 0.0
20/03:30pm 17.5 11.4 0.3 31 7.9 N 22 24 12 13 1021.6 - 0.0
20/03:20pm 17.7 12.6 0.8 32 7.8 NNE 17 22 9 12 1021.5 - 0.0
20/03:10pm 18.1 13.0 0.6 30 8.1 N 17 22 9 12 1021.6 - 0.0
20/03:00pm 17.9 12.4 0.9 32 7.9 NNE 19 26 10 14 1021.5 - 0.0
20/02:50pm 19.0 13.6 1.2 30 8.4 N 19 28 10 15 1021.7 - 0.0
20/02:40pm 18.8 13.6 0.3 29 8.5 N 17 24 9 13 1021.9 - 0.0
20/02:30pm 17.8 13.6 1.6 33 7.6 NNE 13 19 7 10 1021.8 - 0.0
20/02:20pm 18.2 12.7 0.6 30 8.1 N 19 26 10 14 1021.9 - 0.0
20/02:10pm 18.1 13.9 1.4 32 7.8 N 13 19 7 10 1022.0 - 0.0
20/02:00pm 16.9 12.1 0.1 32 7.6 NNE 15 19 8 10 1022.1 - 0.0
20/01:50pm 16.8 11.5 -0.7 30 7.8 N 17 24 9 13 1022.2 - 0.0
20/01:40pm 16.6 11.3 -0.3 31 7.6 NNE 17 22 9 12 1022.2 - 0.0
20/01:30pm 16.9 12.2 0.9 34 7.4 N 15 22 8 12 1022.1 - 0.0
20/01:20pm 16.5 10.6 -0.9 30 7.7 N 20 24 11 13 1022.3 - 0.0
20/01:10pm 16.4 11.7 1.0 35 7.1 N 15 19 8 10 1022.3 - 0.0
20/01:00pm 15.6 10.2 -1.1 32 7.3 NNE 17 19 9 10 1022.5 - 0.0
20/12:50pm 16.1 12.0 -0.3 32 7.3 NNE 11 19 6 10 1022.6 - 0.0
20/12:40pm 15.5 10.8 -1.5 31 7.4 NNE 13 17 7 9 1022.8 - 0.0
20/12:30pm 15.4 11.7 0.2 35 6.8 NNE 9 13 5 7 1022.8 - 0.0
20/12:20pm 16.2 12.2 -1.9 29 7.8 NNW 9 17 5 9 1023.0 - 0.0
20/12:10pm 15.0 10.7 -1.9 31 7.2 N 11 17 6 9 1023.1 - 0.0
20/12:00pm 15.2 11.0 -0.9 33 7.0 N 11 17 6 9 1023.3 - 0.0
20/11:50am 14.6 10.2 -2.3 31 7.1 N 11 19 6 10 1023.3 - 0.0
20/11:40am 14.4 9.3 -2.1 32 7.0 N 15 20 8 11 1023.3 - 0.0
20/11:30am 14.1 10.3 -1.0 35 6.5 N 9 15 5 8 1023.3 - 0.0
20/11:20am 13.6 8.5 -2.1 33 6.6 N 15 17 8 9 1023.4 - 0.0
20/11:10am 14.2 10.0 -0.7 36 6.5 NNW 11 19 6 10 1023.3 - 0.0
20/11:00am 13.7 10.3 -0.6 37 6.2 NNW 7 13 4 7 1023.4 - 0.0
20/10:50am 13.6 10.1 -1.7 34 6.5 N 7 15 4 8 1023.5 - 0.0
20/10:40am 14.3 10.0 -2.0 32 6.9 NNW 11 15 6 8 1023.7 - 0.0
20/10:30am 13.9 9.2 -1.6 34 6.6 N 13 15 7 8 1023.5 - 0.0
20/10:20am 12.6 9.1 -1.7 37 6.0 N 7 13 4 7 1023.6 - 0.0
20/10:10am 11.9 7.6 -1.6 39 5.6 NE 11 17 6 9 1023.6 - 0.0
20/10:00am 11.6 7.7 -1.7 39 5.5 NE 9 15 5 8 1023.6 - 0.0
20/09:50am 11.0 7.1 -1.6 41 5.2 NNE 9 13 5 7 1023.8 - 0.0
20/09:40am 10.7 6.8 -1.5 42 5.0 NE 9 13 5 7 1023.8 - 0.0
20/09:30am 10.1 5.3 -2.2 42 5.0 NE 13 15 7 8 1023.6 - 0.0
20/09:20am 9.8 5.4 -2.5 42 4.9 NE 11 15 6 8 1023.5 - 0.0
20/09:10am 9.5 5.4 -2.7 42 4.8 NE 9 13 5 7 1023.4 - 0.0
20/09:00am 9.5 5.6 -1.5 46 4.5 NNE 9 13 5 7 1023.3 - 0.0
20/08:50am 10.3 7.5 -0.2 48 4.5 NNW 4 6 2 3 1023.2 - 0.0
20/08:40am 9.9 7.3 -2.0 43 4.8 WSW 2 4 1 2 1023.1 - 0.0
20/08:30am 9.5 7.3 -1.5 46 4.5 CALM 0 2 0 1 1022.9 - 0.0
20/08:20am 9.0 6.9 -1.0 49 4.1 CALM 0 4 0 2 1022.9 - 0.0

Latest Capital City Observations: Canberra | Sydney | Melbourne | Brisbane | Adelaide | Perth | Hobart | Darwin

Other formats

Comma delimited format used in spreadsheet applications
http://www.bom.gov.au/fwo/IDN60903/IDN60903.99762.axf

JavaScript Object Notation format (JSON) in row-major order
http://www.bom.gov.au/fwo/IDN60903/IDN60903.99762.json

Data quality

Most of these data are generated automatically and are frequently updated. Quality checks on data are not normally performed. It is possible for incorrect values to appear. Refer to information at About Latest Weather Observations and please check the disclaimer before using these data.